Time;durP1;ratioP1;P1;durP2;ratioP2;P2;SDS_P1;SDS_P2;PMS_P1;PMS_P2;Temp;Humidity;BMP_temperature;BMP_pressure;BME280_temperature;BME280_humidity;BME280_pressure;Samples;Min_cycle;Max_cycle;Signal;HPM_P1;HPM_P2
2023/12/28 00:01:25;;;;;;;3.17;1.30;;;8.70;99.90;;;;;;5016351;28;20049;-64
2023/12/28 00:03:51;;;;;;;3.07;1.93;;;8.70;99.90;;;;;;5030881;28;20040;-64
2023/12/28 00:06:16;;;;;;;2.53;2.03;;;8.80;99.90;;;;;;5030234;28;20281;-64
2023/12/28 00:08:42;;;;;;;3.40;1.77;;;8.90;99.90;;;;;;5028105;28;20041;-64
2023/12/28 00:11:08;;;;;;;1.97;1.77;;;8.90;99.90;;;;;;5026761;28;20140;-64
2023/12/28 00:13:33;;;;;;;2.92;1.58;;;8.90;99.90;;;;;;5027711;28;20037;-65
2023/12/28 00:15:59;;;;;;;4.20;1.53;;;8.90;99.90;;;;;;5011573;28;20152;-64
2023/12/28 00:18:25;;;;;;;2.83;1.90;;;9.00;99.90;;;;;;5030556;28;20171;-64
2023/12/28 00:20:51;;;;;;;4.43;1.60;;;9.00;99.90;;;;;;5029162;28;20037;-64
2023/12/28 00:23:16;;;;;;;3.73;2.80;;;9.00;99.90;;;;;;5029664;28;20489;-64
2023/12/28 00:25:42;;;;;;;2.57;2.10;;;9.10;99.90;;;;;;5029241;28;20292;-64
2023/12/28 00:28:08;;;;;;;2.70;1.77;;;9.10;99.90;;;;;;5030429;28;20831;-64
2023/12/28 00:30:33;;;;;;;2.40;2.20;;;9.10;99.90;;;;;;5030611;28;20045;-64
2023/12/28 00:32:59;;;;;;;2.97;2.50;;;9.10;99.90;;;;;;5030044;28;20037;-64
2023/12/28 00:35:25;;;;;;;;;;;9.20;99.90;;;;;;5030182;28;20061;-64
2023/12/28 00:37:50;;;;;;;3.78;2.45;;;9.10;99.90;;;;;;5028394;28;19921;-64
2023/12/28 00:40:16;;;;;;;4.70;2.30;;;9.20;99.90;;;;;;5028729;28;20506;-64
2023/12/28 00:42:42;;;;;;;4.27;2.67;;;9.20;99.90;;;;;;5022703;28;20327;-65
2023/12/28 00:45:09;;;;;;;4.97;2.40;;;9.20;99.90;;;;;;5028360;28;20049;-64
2023/12/28 00:47:35;;;;;;;2.53;2.05;;;9.20;99.90;;;;;;5025907;28;20041;-65
2023/12/28 00:50:00;;;;;;;3.77;2.53;;;9.20;99.90;;;;;;5027648;28;20052;-65
2023/12/28 00:52:26;;;;;;;2.43;2.20;;;9.20;99.90;;;;;;5022988;28;20358;-64
2023/12/28 00:54:52;;;;;;;5.57;1.93;;;9.20;99.90;;;;;;5029804;28;20080;-64
2023/12/28 00:57:17;;;;;;;5.45;2.22;;;9.20;99.90;;;;;;5028866;28;20038;-65
2023/12/28 00:59:43;;;;;;;3.10;2.17;;;9.20;99.90;;;;;;5029435;28;20069;-64
2023/12/28 01:02:09;;;;;;;8.82;2.15;;;9.20;99.90;;;;;;5029483;28;20068;-64
2023/12/28 01:04:35;;;;;;;3.03;2.10;;;9.20;99.90;;;;;;5029565;28;20045;-64
2023/12/28 01:07:02;;;;;;;6.03;1.83;;;9.20;99.90;;;;;;5029516;28;20565;-64
2023/12/28 01:09:28;;;;;;;2.17;1.45;;;9.10;99.90;;;;;;5022730;28;20044;-64
2023/12/28 01:11:54;;;;;;;2.78;1.90;;;9.10;99.90;;;;;;5029822;28;20037;-65
2023/12/28 01:14:19;;;;;;;3.95;1.98;;;9.10;99.90;;;;;;5029563;28;20076;-64
2023/12/28 01:16:45;;;;;;;3.53;1.90;;;9.10;99.90;;;;;;5029142;28;20088;-64
2023/12/28 01:19:11;;;;;;;4.22;1.95;;;9.10;99.90;;;;;;5028685;28;20513;-65
2023/12/28 01:21:36;;;;;;;2.70;2.15;;;9.10;99.90;;;;;;5029396;28;20513;-64
2023/12/28 01:24:02;;;;;;;4.03;2.07;;;9.00;99.90;;;;;;5011481;28;20063;-64
2023/12/28 01:26:27;;;;;;;2.28;2.08;;;9.00;99.90;;;;;;5028199;28;20038;-64
2023/12/28 01:28:54;;;;;;;4.45;2.13;;;9.00;99.90;;;;;;5027611;28;20113;-64
2023/12/28 01:31:19;;;;;;;5.18;2.00;;;9.00;99.90;;;;;;5027801;28;20080;-64
2023/12/28 01:33:45;;;;;;;3.05;1.77;;;9.00;99.90;;;;;;5028170;28;20073;-64
2023/12/28 01:36:17;;;;;;;2.25;1.52;;;9.00;99.90;;;;;;5027988;28;20033;-64
2023/12/28 01:38:43;;;;;;;4.47;1.70;;;8.90;99.90;;;;;;5011107;28;20037;-64
2023/12/28 01:41:09;;;;;;;2.33;1.50;;;8.90;99.90;;;;;;5029237;28;20285;-64
2023/12/28 01:43:34;;;;;;;5.90;2.38;;;8.90;99.90;;;;;;5027838;28;20493;-65
2023/12/28 01:46:00;;;;;;;1.95;1.45;;;8.90;99.90;;;;;;5011636;28;20522;-64
2023/12/28 01:48:27;;;;;;;3.30;1.65;;;8.90;99.90;;;;;;5028282;28;20072;-66
2023/12/28 01:50:53;;;;;;;4.35;2.05;;;8.90;99.90;;;;;;5026887;28;20037;-64
2023/12/28 01:53:19;;;;;;;4.93;2.30;;;8.90;99.90;;;;;;5027821;28;20040;-64
2023/12/28 01:55:44;;;;;;;2.97;1.83;;;8.90;99.90;;;;;;5011250;28;20042;-64
2023/12/28 01:58:11;;;;;;;3.20;1.88;;;8.90;99.90;;;;;;5029253;28;20037;-64
2023/12/28 02:00:38;;;;;;;;;;;9.00;99.90;;;;;;5027887;28;20037;-65
2023/12/28 02:03:06;;;;;;;4.88;2.17;;;9.00;99.90;;;;;;5026930;28;20146;-64
2023/12/28 02:05:33;;;;;;;3.78;1.65;;;9.00;99.90;;;;;;5028373;28;20041;-64
2023/12/28 02:07:58;;;;;;;6.38;2.33;;;9.00;99.90;;;;;;5028488;28;20366;-64
2023/12/28 02:10:24;;;;;;;2.23;1.90;;;9.10;99.90;;;;;;5008413;28;20038;-64
2023/12/28 02:12:52;;;;;;;5.35;1.70;;;9.10;99.90;;;;;;5032492;28;20701;-64
2023/12/28 02:15:19;;;;;;;5.93;1.88;;;9.10;99.90;;;;;;5032466;28;20041;-64
2023/12/28 02:17:54;;;;;;;3.83;1.88;;;9.10;99.90;;;;;;5030954;28;20064;-64
2023/12/28 02:20:21;;;;;;;2.80;1.77;;;9.20;99.90;;;;;;5033441;28;20498;-64
2023/12/28 02:22:48;;;;;;;4.90;2.28;;;9.20;99.90;;;;;;5031255;28;20064;-64
2023/12/28 02:25:13;;;;;;;3.42;2.65;;;9.20;99.90;;;;;;5031761;28;20042;-64
2023/12/28 02:27:46;;;;;;;5.00;2.03;;;9.20;99.90;;;;;;5031505;28;20047;-64
2023/12/28 02:30:13;;;;;;;3.28;1.73;;;9.30;99.90;;;;;;5030442;28;20044;-64
2023/12/28 02:33:09;;;;;;;3.97;2.20;;;9.20;99.90;;;;;;5030179;28;20040;-64
2023/12/28 02:35:43;;;;;;;3.28;2.13;;;9.30;99.90;;;;;;5031837;28;20501;-65
2023/12/28 02:38:11;;;;;;;9.30;2.15;;;9.30;99.90;;;;;;5036145;28;20091;-65
2023/12/28 02:40:38;;;;;;;6.57;2.67;;;9.30;99.90;;;;;;5036864;28;20603;-65
2023/12/28 02:43:09;;;;;;;6.78;2.78;;;9.30;99.90;;;;;;5034589;28;20049;-65
2023/12/28 02:45:35;;;;;;;2.83;1.83;;;9.30;99.90;;;;;;5032173;28;20065;-65
2023/12/28 02:48:02;;;;;;;4.40;1.98;;;9.40;99.90;;;;;;5032105;28;20355;-64
2023/12/28 02:50:30;;;;;;;4.55;2.40;;;9.40;99.90;;;;;;5030983;28;20037;-65
2023/12/28 02:52:56;;;;;;;3.88;2.20;;;9.40;99.90;;;;;;5031713;28;20541;-64
2023/12/28 02:55:21;;;;;;;4.95;2.65;;;9.30;99.90;;;;;;5030832;28;20041;-64
2023/12/28 02:57:47;;;;;;;5.70;2.13;;;9.30;99.90;;;;;;5030503;28;20513;-64
2023/12/28 03:00:13;;;;;;;17.60;2.97;;;9.30;99.90;;;;;;5031980;28;20367;-65
2023/12/28 03:02:39;;;;;;;5.85;2.75;;;9.40;99.90;;;;;;5030501;28;20104;-65
2023/12/28 03:05:05;;;;;;;5.07;1.95;;;9.40;99.90;;;;;;5030653;28;20045;-65
2023/12/28 03:07:32;;;;;;;5.57;2.58;;;9.40;99.90;;;;;;5030305;28;20520;-64
2023/12/28 03:09:57;;;;;;;4.50;2.33;;;9.40;99.90;;;;;;5031788;28;20478;-65
2023/12/28 03:12:23;;;;;;;3.47;1.70;;;9.50;99.90;;;;;;5031937;28;20065;-64
2023/12/28 03:14:49;;;;;;;4.37;2.10;;;9.50;99.90;;;;;;5030048;28;20033;-64
2023/12/28 03:17:15;;;;;;;4.05;2.38;;;9.50;99.90;;;;;;5027050;28;20577;-64
2023/12/28 03:19:40;;;;;;;4.55;2.15;;;9.60;99.90;;;;;;5031562;28;20033;-64
2023/12/28 03:22:06;;;;;;;4.00;1.77;;;9.60;99.90;;;;;;5031488;28;20516;-64
2023/12/28 03:24:32;;;;;;;6.45;2.28;;;9.60;99.90;;;;;;5032189;28;20077;-65
2023/12/28 03:26:57;;;;;;;4.03;2.10;;;9.60;99.90;;;;;;5029869;28;20512;-64
2023/12/28 03:29:24;;;;;;;5.43;2.17;;;9.50;99.90;;;;;;5031918;28;20045;-64
2023/12/28 03:31:50;;;;;;;3.45;2.25;;;9.60;99.90;;;;;;5029077;28;20292;-65
2023/12/28 03:34:16;;;;;;;7.70;2.75;;;9.60;99.90;;;;;;5029497;28;20075;-64
2023/12/28 03:36:41;;;;;;;5.60;1.77;;;9.60;99.90;;;;;;5030375;28;20064;-64
2023/12/28 03:39:08;;;;;;;6.13;2.40;;;9.70;99.90;;;;;;5031380;28;20123;-65
2023/12/28 03:41:34;;;;;;;4.85;2.08;;;9.70;99.90;;;;;;5030996;28;20184;-64
2023/12/28 03:44:00;;;;;;;4.68;2.03;;;9.60;99.90;;;;;;5029606;28;20109;-64
2023/12/28 03:46:26;;;;;;;5.10;2.50;;;9.60;99.90;;;;;;5031153;28;20418;-65
2023/12/28 03:48:52;;;;;;;3.58;2.03;;;9.60;99.90;;;;;;5030859;28;20037;-64
2023/12/28 03:51:18;;;;;;;2.83;2.28;;;9.70;99.90;;;;;;5030586;28;20049;-64
2023/12/28 03:53:44;;;;;;;4.75;2.15;;;9.70;99.90;;;;;;5013028;28;20047;-65
2023/12/28 03:56:22;;;;;;;5.72;2.40;;;9.70;99.90;;;;;;5029619;28;20030;-64
2023/12/28 03:58:48;;;;;;;5.80;1.95;;;9.70;99.90;;;;;;5029480;28;20469;-64
2023/12/28 04:01:14;;;;;;;6.15;1.67;;;9.80;99.90;;;;;;5030484;28;20129;-64
2023/12/28 04:03:39;;;;;;;3.15;1.98;;;9.70;99.90;;;;;;5029474;28;20042;-64
2023/12/28 04:06:05;;;;;;;6.23;1.73;;;9.80;99.90;;;;;;5030023;28;20049;-64
2023/12/28 04:08:31;;;;;;;8.77;2.45;;;9.80;99.90;;;;;;5029693;28;20355;-64
2023/12/28 04:10:56;;;;;;;4.03;2.30;;;9.80;99.90;;;;;;5030148;28;20042;-64
2023/12/28 04:13:22;;;;;;;7.00;2.50;;;9.80;99.90;;;;;;5029609;28;20041;-64
2023/12/28 04:15:47;;;;;;;11.30;2.43;;;9.80;99.90;;;;;;5029122;28;20292;-65
2023/12/28 04:18:13;;;;;;;3.60;2.07;;;9.80;99.90;;;;;;5029386;28;20395;-64
2023/12/28 04:20:38;;;;;;;5.60;1.67;;;9.70;99.90;;;;;;5029064;28;20082;-64
2023/12/28 04:23:04;;;;;;;4.45;1.55;;;9.80;99.90;;;;;;5061766;28;20112;-64
2023/12/28 04:25:30;;;;;;;6.43;1.97;;;9.80;99.90;;;;;;5024187;28;20045;-64
2023/12/28 04:27:55;;;;;;;9.87;2.73;;;9.80;99.90;;;;;;5030069;28;20276;-64
2023/12/28 04:30:21;;;;;;;5.23;1.70;;;9.80;99.90;;;;;;5030788;28;20057;-64
2023/12/28 04:32:47;;;;;;;6.77;1.40;;;9.80;99.90;;;;;;5029435;28;20505;-64
2023/12/28 04:35:12;;;;;;;3.88;2.00;;;9.80;99.90;;;;;;5030416;28;20379;-65
2023/12/28 04:37:38;;;;;;;5.63;2.45;;;9.80;99.90;;;;;;5029371;28;20036;-64
2023/12/28 04:40:04;;;;;;;8.90;1.87;;;9.80;99.90;;;;;;5028502;28;20045;-64
2023/12/28 04:42:29;;;;;;;8.52;1.55;;;9.80;99.90;;;;;;5027765;28;20284;-64
2023/12/28 04:44:55;;;;;;;5.30;1.67;;;9.90;99.90;;;;;;5029924;28;20052;-65
2023/12/28 04:47:21;;;;;;;9.47;2.10;;;9.90;99.90;;;;;;5029642;28;20413;-64
2023/12/28 04:49:46;;;;;;;5.00;1.77;;;9.90;99.90;;;;;;5029140;28;20049;-65
2023/12/28 04:52:12;;;;;;;8.63;1.33;;;9.90;99.90;;;;;;5030056;28;20272;-65
2023/12/28 04:54:40;;;;;;;7.17;1.00;;;9.90;99.90;;;;;;5029907;28;20042;-65
2023/12/28 04:57:08;;;;;;;8.05;1.42;;;9.90;99.90;;;;;;5029597;28;20108;-65
2023/12/28 04:59:41;;;;;;;4.63;1.33;;;9.90;99.90;;;;;;5029857;28;20414;-65
2023/12/28 05:02:07;;;;;;;6.07;1.15;;;9.90;99.90;;;;;;5029075;28;20033;-65
2023/12/28 05:04:33;;;;;;;9.68;2.08;;;9.90;99.90;;;;;;5018863;28;20280;-65
2023/12/28 05:06:59;;;;;;;8.25;1.85;;;9.90;99.90;;;;;;5029736;28;20037;-65
2023/12/28 05:09:24;;;;;;;11.10;1.60;;;9.80;99.90;;;;;;5029835;28;20525;-65
2023/12/28 05:11:50;;;;;;;7.22;1.35;;;9.90;99.90;;;;;;5011077;28;20045;-65
2023/12/28 05:14:15;;;;;;;8.87;2.03;;;9.90;99.90;;;;;;5029783;28;20076;-65
2023/12/28 05:16:41;;;;;;;15.60;2.03;;;9.90;99.90;;;;;;5028956;28;20644;-66
2023/12/28 05:19:07;;;;;;;6.20;1.47;;;9.90;99.90;;;;;;5027768;28;20037;-65
2023/12/28 05:21:32;;;;;;;9.93;1.60;;;10.00;99.90;;;;;;5029263;28;20041;-65
2023/12/28 05:23:58;;;;;;;9.70;1.80;;;10.00;99.90;;;;;;5029310;28;20041;-65
2023/12/28 05:26:24;;;;;;;8.77;2.50;;;10.00;99.90;;;;;;5031684;28;20041;-65
2023/12/28 05:28:49;;;;;;;8.27;1.75;;;10.00;99.90;;;;;;5024875;28;20129;-65
2023/12/28 05:31:15;;;;;;;6.25;1.42;;;10.00;99.90;;;;;;5028530;28;20053;-65
2023/12/28 05:33:40;;;;;;;7.18;1.70;;;10.00;99.90;;;;;;5029499;28;20528;-65
2023/12/28 05:36:06;;;;;;;10.90;1.67;;;10.00;99.90;;;;;;5028358;28;20069;-65
2023/12/28 05:38:32;;;;;;;6.10;1.35;;;10.10;99.90;;;;;;5027342;28;20025;-65
2023/12/28 05:40:57;;;;;;;6.50;1.60;;;10.10;99.90;;;;;;5028864;28;20041;-65
2023/12/28 05:43:23;;;;;;;10.75;1.58;;;10.10;99.90;;;;;;5028729;28;20052;-65
2023/12/28 05:45:49;;;;;;;8.87;2.27;;;10.10;99.90;;;;;;5027021;28;20056;-65
2023/12/28 05:48:15;;;;;;;14.88;2.25;;;10.20;99.90;;;;;;5028775;28;20049;-65
2023/12/28 05:50:40;;;;;;;14.75;2.00;;;10.20;99.90;;;;;;5029010;28;20394;-65
2023/12/28 05:53:06;;;;;;;20.42;2.08;;;10.20;99.90;;;;;;5027457;28;20041;-65
2023/12/28 05:55:32;;;;;;;15.23;2.13;;;10.20;99.90;;;;;;5028989;28;20052;-65
2023/12/28 05:57:57;;;;;;;11.97;2.00;;;10.20;99.90;;;;;;5027094;28;20276;-65
2023/12/28 06:00:23;;;;;;;11.77;1.90;;;10.20;99.90;;;;;;5029083;28;20044;-65
2023/12/28 06:02:52;;;;;;;9.23;1.83;;;10.20;99.90;;;;;;5028249;28;20284;-66
2023/12/28 06:05:18;;;;;;;12.23;1.80;;;10.30;99.90;;;;;;5029245;28;20280;-65
2023/12/28 06:07:43;;;;;;;10.48;1.92;;;10.30;99.90;;;;;;5026887;28;20445;-65
2023/12/28 06:10:09;;;;;;;10.77;1.75;;;10.30;99.90;;;;;;5060817;28;20033;-65
2023/12/28 06:12:36;;;;;;;14.60;2.28;;;10.40;99.90;;;;;;5028489;28;20561;-65
2023/12/28 06:15:02;;;;;;;9.80;1.75;;;10.30;99.90;;;;;;5028167;28;20064;-65
2023/12/28 06:17:28;;;;;;;13.23;2.25;;;10.40;99.90;;;;;;5028745;28;20046;-65
2023/12/28 06:19:54;;;;;;;13.48;2.53;;;10.30;99.90;;;;;;5027003;28;20065;-65
2023/12/28 06:22:19;;;;;;;14.07;2.13;;;10.30;99.90;;;;;;5028481;28;20037;-65
2023/12/28 06:24:45;;;;;;;12.93;1.93;;;10.40;99.90;;;;;;5028430;28;20276;-65
2023/12/28 06:27:11;;;;;;;11.48;2.65;;;10.40;99.90;;;;;;5023764;28;20343;-65
2023/12/28 06:29:37;;;;;;;11.82;2.58;;;10.40;99.90;;;;;;5028042;28;20123;-65
2023/12/28 06:32:03;;;;;;;8.80;1.43;;;10.40;99.90;;;;;;5022098;28;20037;-65
2023/12/28 06:34:28;;;;;;;7.28;1.92;;;10.40;99.90;;;;;;5027328;28;20316;-65
2023/12/28 06:36:54;;;;;;;13.37;1.93;;;10.40;99.90;;;;;;5027521;28;20128;-65
2023/12/28 06:39:19;;;;;;;18.07;1.67;;;10.40;99.90;;;;;;5028295;28;20280;-65
2023/12/28 06:41:48;;;;;;;16.85;2.13;;;10.50;99.90;;;;;;5027076;28;20060;-65
2023/12/28 06:44:14;;;;;;;10.40;1.83;;;10.50;99.90;;;;;;5028080;28;20506;-65
2023/12/28 06:46:40;;;;;;;15.52;2.70;;;10.50;99.90;;;;;;5028538;28;20052;-65
2023/12/28 06:49:06;;;;;;;15.32;1.67;;;10.50;99.90;;;;;;5027587;28;20041;-65
2023/12/28 06:51:32;;;;;;;13.40;2.13;;;10.50;99.90;;;;;;5028141;28;20034;-65
2023/12/28 06:53:58;;;;;;;15.73;2.25;;;10.50;99.90;;;;;;5028280;28;20041;-65
2023/12/28 06:56:25;;;;;;;10.25;1.17;;;10.50;99.90;;;;;;5029767;28;20045;-65
2023/12/28 06:58:50;;;;;;;11.48;2.17;;;10.60;99.90;;;;;;5030878;28;20076;-65
2023/12/28 07:01:16;;;;;;;13.53;2.20;;;10.60;99.90;;;;;;5030824;28;20049;-65
2023/12/28 07:03:42;;;;;;;13.70;1.98;;;10.60;99.90;;;;;;5030443;28;20870;-65
2023/12/28 07:06:08;;;;;;;12.38;1.63;;;10.60;99.90;;;;;;5030028;28;20041;-65
2023/12/28 07:08:34;;;;;;;9.70;2.35;;;10.60;99.90;;;;;;5031027;28;20052;-65
2023/12/28 07:10:59;;;;;;;13.57;2.20;;;10.60;99.90;;;;;;5032570;28;20045;-65
2023/12/28 07:13:25;;;;;;;13.02;1.80;;;10.60;99.90;;;;;;5031633;28;20493;-65
2023/12/28 07:15:51;;;;;;;14.55;2.75;;;10.60;99.90;;;;;;5030902;28;20076;-65
2023/12/28 07:18:17;;;;;;;15.00;2.50;;;10.60;99.90;;;;;;5025154;28;20440;-65
2023/12/28 07:20:43;;;;;;;24.97;2.80;;;10.60;99.90;;;;;;5027855;28;20387;-65
2023/12/28 07:23:11;;;;;;;9.00;1.70;;;10.70;99.90;;;;;;5030417;28;20346;-65
2023/12/28 07:25:37;;;;;;;17.10;2.33;;;10.60;99.90;;;;;;5026781;28;20042;-65
2023/12/28 07:28:02;;;;;;;10.83;2.30;;;10.60;99.90;;;;;;5030155;28;20041;-65
2023/12/28 07:30:29;;;;;;;17.10;2.30;;;10.60;99.90;;;;;;5018661;28;20180;-65
2023/12/28 07:32:55;;;;;;;19.05;2.20;;;10.60;99.90;;;;;;5027847;28;20441;-66
2023/12/28 07:35:20;;;;;;;14.48;2.15;;;10.70;99.90;;;;;;5031184;28;20025;-65
2023/12/28 07:37:46;;;;;;;16.13;1.47;;;10.70;99.90;;;;;;5027839;28;20518;-65
2023/12/28 07:40:12;;;;;;;15.02;2.40;;;10.60;99.90;;;;;;5029411;28;20045;-65
2023/12/28 07:42:38;;;;;;;11.18;2.03;;;10.70;99.90;;;;;;5029342;28;20112;-65
2023/12/28 07:45:04;;;;;;;13.65;2.40;;;10.70;99.90;;;;;;5029861;28;20124;-65
2023/12/28 07:47:30;;;;;;;12.20;2.58;;;10.70;99.90;;;;;;5031392;28;20413;-65
2023/12/28 07:49:56;;;;;;;13.95;2.08;;;10.70;99.90;;;;;;5031003;28;20053;-64
2023/12/28 07:52:21;;;;;;;13.13;2.87;;;10.70;99.90;;;;;;5012628;28;20057;-65
2023/12/28 07:54:47;;;;;;;16.47;2.57;;;10.70;99.90;;;;;;5028140;28;20284;-65
2023/12/28 07:57:12;;;;;;;19.23;3.42;;;10.70;99.90;;;;;;5026612;28;20279;-65
2023/12/28 07:59:38;;;;;;;11.40;1.90;;;10.70;99.90;;;;;;5030938;28;20454;-65
2023/12/28 08:02:04;;;;;;;13.95;1.98;;;10.70;99.90;;;;;;5030881;28;20054;-65
2023/12/28 08:04:29;;;;;;;11.43;2.70;;;10.70;99.90;;;;;;5030729;28;20036;-65
2023/12/28 08:06:55;;;;;;;17.00;2.23;;;10.70;99.90;;;;;;5034645;28;20048;-65
2023/12/28 08:09:21;;;;;;;17.20;2.85;;;10.70;99.90;;;;;;5033347;28;20060;-64
2023/12/28 08:11:46;;;;;;;17.20;2.70;;;10.70;99.90;;;;;;5028616;28;20060;-66
2023/12/28 08:14:12;;;;;;;21.20;2.95;;;10.70;99.90;;;;;;5027468;28;20398;-65
2023/12/28 08:16:38;;;;;;;14.82;3.08;;;10.70;99.90;;;;;;5029301;28;20401;-65
2023/12/28 08:19:04;;;;;;;13.07;2.87;;;10.80;99.90;;;;;;5030709;28;20041;-65
2023/12/28 08:21:30;;;;;;;20.65;2.95;;;10.80;99.90;;;;;;5012319;28;20046;-65
2023/12/28 08:23:56;;;;;;;16.98;2.83;;;10.80;99.90;;;;;;5029525;28;20041;-65
2023/12/28 08:26:21;;;;;;;19.35;3.60;;;10.80;99.90;;;;;;5026101;28;20038;-65
2023/12/28 08:28:47;;;;;;;21.33;2.70;;;10.80;99.90;;;;;;5026739;28;20042;-65
2023/12/28 08:31:13;;;;;;;19.92;3.20;;;10.80;99.90;;;;;;5033162;28;20033;-64
2023/12/28 08:33:39;;;;;;;15.20;3.67;;;10.80;99.90;;;;;;5029010;28;20452;-65
2023/12/28 08:36:09;;;;;;;28.40;3.47;;;10.90;99.90;;;;;;5028121;28;20051;-66
2023/12/28 08:38:35;;;;;;;16.63;3.03;;;10.90;99.90;;;;;;5028199;28;20072;-66
2023/12/28 08:41:03;;;;;;;14.55;2.30;;;10.90;99.90;;;;;;5020951;28;20041;-65
2023/12/28 08:43:29;;;;;;;15.50;2.63;;;10.90;99.90;;;;;;5028773;28;20037;-65
2023/12/28 08:45:55;;;;;;;12.52;2.88;;;10.90;99.90;;;;;;5026427;28;20100;-66
2023/12/28 08:48:20;;;;;;;13.65;2.60;;;10.90;99.90;;;;;;5025785;28;20037;-65
2023/12/28 08:50:46;;;;;;;24.60;4.28;;;10.80;99.90;;;;;;5027086;28;20510;-65
2023/12/28 08:53:12;;;;;;;16.73;3.22;;;10.90;99.90;;;;;;5027797;28;20366;-65
2023/12/28 08:55:37;;;;;;;13.47;3.47;;;10.90;99.90;;;;;;5029656;28;20037;-66
2023/12/28 08:58:03;;;;;;;17.38;3.50;;;10.80;99.90;;;;;;5028146;28;20033;-66
2023/12/28 09:00:29;;;;;;;26.20;5.20;;;10.90;99.90;;;;;;5012088;28;20041;-66
2023/12/28 09:02:54;;;;;;;20.92;4.43;;;10.90;99.90;;;;;;5026245;28;20918;-66
2023/12/28 09:05:20;;;;;;;23.98;4.22;;;10.90;99.90;;;;;;5029387;28;20041;-66
2023/12/28 09:07:47;;;;;;;27.33;3.60;;;10.90;99.90;;;;;;5024092;28;20037;-65
2023/12/28 09:10:13;;;;;;;19.52;3.30;;;10.90;99.90;;;;;;5022434;28;20041;-65
2023/12/28 09:12:40;;;;;;;33.97;3.92;;;10.90;99.90;;;;;;5017434;28;20033;-65
2023/12/28 09:15:07;;;;;;;23.40;3.60;;;10.90;99.90;;;;;;5022961;28;20052;-65
2023/12/28 09:17:33;;;;;;;20.05;2.78;;;11.00;99.90;;;;;;5020322;28;20038;-68
2023/12/28 09:20:01;;;;;;;21.17;3.88;;;11.00;99.90;;;;;;5022937;28;20069;-65
2023/12/28 09:22:27;;;;;;;24.58;3.38;;;11.00;99.90;;;;;;5026054;28;20525;-66
2023/12/28 09:24:52;;;;;;;23.13;2.65;;;11.00;99.90;;;;;;5025464;28;20037;-66
2023/12/28 09:27:18;;;;;;;30.57;4.17;;;11.00;99.90;;;;;;5025938;28;20063;-66
2023/12/28 09:29:43;;;;;;;19.73;2.77;;;11.00;99.90;;;;;;5022749;28;20373;-66
2023/12/28 09:32:09;;;;;;;15.37;2.93;;;11.00;99.90;;;;;;5025825;28;20063;-66
2023/12/28 09:34:35;;;;;;;30.35;4.45;;;11.00;99.90;;;;;;5027084;28;20798;-66
2023/12/28 09:37:00;;;;;;;20.60;2.78;;;11.00;99.90;;;;;;5027664;28;20103;-66
2023/12/28 09:39:26;;;;;;;18.52;3.10;;;11.00;99.90;;;;;;5024650;28;20041;-66
2023/12/28 09:42:00;;;;;;;18.30;2.67;;;11.00;99.90;;;;;;5017405;28;20037;-66
2023/12/28 09:44:27;;;;;;;23.50;3.63;;;11.00;99.90;;;;;;5028917;28;20052;-65
2023/12/28 09:46:53;;;;;;;18.50;2.90;;;11.10;99.90;;;;;;5026277;28;20041;-65
2023/12/28 09:49:21;;;;;;;25.15;4.57;;;11.10;99.90;;;;;;5027597;28;20567;-65
2023/12/28 09:51:47;;;;;;;17.85;2.60;;;11.00;99.90;;;;;;5026319;28;20402;-66
2023/12/28 09:54:13;;;;;;;18.27;3.40;;;11.00;99.90;;;;;;5010530;28;20060;-65
2023/12/28 09:56:40;;;;;;;25.83;4.22;;;11.00;99.90;;;;;;5027944;28;20045;-66
2023/12/28 09:59:07;;;;;;;16.10;2.45;;;11.00;99.90;;;;;;5026257;28;20043;-65
2023/12/28 10:01:36;;;;;;;14.88;3.17;;;11.00;99.90;;;;;;5026560;28;20041;-67
2023/12/28 10:04:04;;;;;;;23.33;3.25;;;11.00;99.90;;;;;;5005066;28;20045;-67
2023/12/28 10:06:30;;;;;;;24.40;3.95;;;10.90;99.90;;;;;;5020046;28;20045;-67
2023/12/28 10:08:55;;;;;;;16.97;2.43;;;11.00;99.90;;;;;;5022618;28;20420;-67
2023/12/28 10:11:21;;;;;;;22.08;2.67;;;10.90;99.90;;;;;;5024705;28;20046;-67
2023/12/28 10:13:49;;;;;;;20.10;3.65;;;10.90;99.90;;;;;;5028611;28;20056;-67
2023/12/28 10:16:15;;;;;;;19.08;3.05;;;10.90;99.90;;;;;;5029084;28;20501;-67
2023/12/28 10:18:45;;;;;;;16.45;2.92;;;10.90;99.90;;;;;;5027740;28;20041;-67
2023/12/28 10:21:11;;;;;;;16.70;2.63;;;10.90;99.90;;;;;;5027525;28;20049;-67
2023/12/28 10:23:40;;;;;;;;;;;10.90;99.90;;;;;;5029771;28;20116;-67
2023/12/28 10:26:06;;;;;;;18.05;3.22;;;10.90;99.90;;;;;;5029138;28;19932;-67
2023/12/28 10:28:38;;;;;;;18.48;3.03;;;10.90;99.90;;;;;;5011173;28;20049;-64
2023/12/28 10:31:04;;;;;;;28.80;4.00;;;10.90;99.90;;;;;;5029277;28;20171;-64
2023/12/28 10:33:35;;;;;;;21.20;3.17;;;10.90;99.90;;;;;;5031446;28;20106;-65
2023/12/28 10:36:05;;;;;;;17.65;3.15;;;10.90;99.90;;;;;;5031734;28;20046;-67
2023/12/28 10:38:35;;;;;;;24.67;3.65;;;10.90;99.90;;;;;;5037534;28;20378;-67
2023/12/28 10:41:01;;;;;;;25.10;3.17;;;11.00;99.90;;;;;;5036078;28;20459;-63
2023/12/28 10:43:27;;;;;;;14.30;2.80;;;11.00;99.90;;;;;;5033090;28;20052;-64
2023/12/28 10:45:55;;;;;;;16.70;2.53;;;11.00;99.90;;;;;;5031014;28;20112;-64
2023/12/28 10:48:30;;;;;;;23.58;4.40;;;11.00;99.90;;;;;;5032914;28;20048;-64
2023/12/28 10:50:58;;;;;;;14.85;2.80;;;11.00;99.90;;;;;;5030940;28;20099;-64
2023/12/28 10:53:35;;;;;;;18.98;2.92;;;11.00;99.90;;;;;;5031396;28;20033;-64
2023/12/28 10:56:16;;;;;;;14.15;2.20;;;11.00;99.90;;;;;;5033095;28;20155;-64
2023/12/28 10:58:57;;;;;;;20.05;3.47;;;11.00;99.90;;;;;;5032699;28;20060;-64
2023/12/28 11:01:27;;;;;;;18.83;3.38;;;11.00;99.90;;;;;;5030669;28;20042;-64
2023/12/28 11:04:03;;;;;;;19.58;3.35;;;11.00;99.90;;;;;;5032779;28;20037;-64
2023/12/28 11:06:30;;;;;;;17.42;2.72;;;11.00;99.90;;;;;;5031510;28;20059;-67
2023/12/28 11:08:57;;;;;;;18.90;3.38;;;11.00;99.90;;;;;;5030723;28;20054;-67
2023/12/28 11:11:24;;;;;;;25.88;3.70;;;11.00;99.90;;;;;;5030972;28;20402;-67
2023/12/28 11:13:51;;;;;;;25.52;4.15;;;11.00;99.90;;;;;;5030248;28;20080;-66
2023/12/28 11:16:18;;;;;;;22.00;3.28;;;11.00;99.90;;;;;;5031197;28;20040;-67
2023/12/28 11:18:44;;;;;;;21.38;3.47;;;11.00;99.90;;;;;;5030402;28;20037;-66
2023/12/28 11:21:10;;;;;;;;;;;11.00;99.90;;;;;;5032207;28;20083;-66
2023/12/28 11:23:36;;;;;;;18.65;3.40;;;11.00;99.90;;;;;;5030747;28;19960;-67
2023/12/28 11:26:02;;;;;;;19.52;3.58;;;11.00;99.90;;;;;;5032020;28;20078;-67
2023/12/28 11:28:28;;;;;;;18.98;4.03;;;11.00;99.90;;;;;;5031320;28;20038;-66
2023/12/28 11:30:53;;;;;;;19.58;3.40;;;11.00;99.90;;;;;;5031653;28;20414;-66
2023/12/28 11:33:19;;;;;;;16.10;2.57;;;11.00;99.90;;;;;;5030454;28;20124;-67
2023/12/28 11:35:47;;;;;;;26.30;3.50;;;11.00;99.90;;;;;;5031643;28;20642;-66
2023/12/28 11:38:15;;;;;;;21.75;3.08;;;11.00;99.90;;;;;;5031798;28;20397;-66
2023/12/28 11:40:46;;;;;;;26.70;3.95;;;11.00;99.90;;;;;;5030139;28;20038;-67
2023/12/28 11:43:20;;;;;;;18.52;3.45;;;11.00;99.90;;;;;;5028816;28;20569;-66
2023/12/28 11:45:55;;;;;;;14.82;1.88;;;11.10;99.90;;;;;;5030355;28;20111;-67
2023/12/28 11:48:27;;;;;;;18.15;2.85;;;11.00;99.90;;;;;;5031598;28;20045;-67
2023/12/28 11:50:58;;;;;;;23.27;2.78;;;11.00;99.90;;;;;;5029897;28;20045;-67
2023/12/28 11:53:25;;;;;;;18.63;3.22;;;11.00;99.90;;;;;;5031114;28;20494;-67
2023/12/28 11:55:51;;;;;;;17.38;3.30;;;11.00;99.90;;;;;;5029920;28;20087;-66
2023/12/28 11:58:19;;;;;;;23.17;3.08;;;11.00;99.90;;;;;;5031483;28;20083;-67
2023/12/28 12:00:47;;;;;;;19.08;3.28;;;11.00;99.90;;;;;;5031340;28;20076;-67
2023/12/28 12:03:13;;;;;;;18.90;3.67;;;10.90;99.90;;;;;;5030201;28;20045;-67
2023/12/28 12:05:39;;;;;;;20.13;3.80;;;10.90;99.90;;;;;;5031346;28;20110;-67
2023/12/28 12:08:05;;;;;;;;;;;10.90;99.90;;;;;;5031306;28;20045;-68
2023/12/28 12:10:32;;;;;;;16.90;3.35;;;11.00;99.90;;;;;;5030058;28;19964;-68
2023/12/28 12:12:57;;;;;;;;;;;11.00;99.90;;;;;;5031501;28;20037;-67
2023/12/28 12:15:23;;;;;;;19.63;3.30;;;11.00;99.90;;;;;;5031345;28;19917;-67
2023/12/28 12:17:49;;;;;;;16.40;2.92;;;11.00;99.90;;;;;;5029531;28;20486;-67
2023/12/28 12:20:14;;;;;;;19.75;3.72;;;11.00;99.90;;;;;;5030201;28;20517;-66
2023/12/28 12:22:40;;;;;;;18.63;4.35;;;11.00;99.90;;;;;;5032825;28;20068;-66
2023/12/28 12:25:07;;;;;;;16.98;2.42;;;10.90;99.90;;;;;;5036503;28;20103;-67
2023/12/28 12:27:33;;;;;;;23.20;3.33;;;10.90;99.90;;;;;;5032741;28;20160;-66
2023/12/28 12:29:59;;;;;;;17.02;2.53;;;10.90;99.90;;;;;;5029363;28;20044;-66
2023/12/28 12:32:25;;;;;;;23.40;2.33;;;10.90;99.90;;;;;;5029383;28;20488;-67
2023/12/28 12:34:51;;;;;;;23.73;4.93;;;10.80;99.90;;;;;;5029248;28;20280;-67
2023/12/28 12:37:17;;;;;;;18.15;3.15;;;10.80;99.90;;;;;;5028994;28;20519;-67
2023/12/28 12:39:43;;;;;;;19.75;4.20;;;10.80;99.90;;;;;;5030392;28;20030;-67
2023/12/28 12:42:13;;;;;;;20.40;4.07;;;10.90;99.90;;;;;;5030487;28;20061;-67
2023/12/28 12:44:39;;;;;;;22.58;3.17;;;10.80;99.90;;;;;;5029075;28;20069;-67